Time;durP1;ratioP1;P1;durP2;ratioP2;P2;SDS_P1;SDS_P2;PMS_P1;PMS_P2;Temp;Humidity;BMP_temperature;BMP_pressure;BME280_temperature;BME280_humidity;BME280_pressure;Samples;Min_cycle;Max_cycle;Signal;HPM_P1;HPM_P2
2023/09/22 00:00:37;;;;;;;18.45;12.07;;;;;;;;;;4960843;29;20050;-91
2023/09/22 00:03:05;;;;;;;21.00;12.65;;;;;;;;;;4960468;29;20027;-90
2023/09/22 00:05:31;;;;;;;16.23;12.50;;;;;;;;;;4960108;29;20031;-90
2023/09/22 00:07:57;;;;;;;15.93;12.82;;;;;;;;;;4961692;29;20127;-90
2023/09/22 00:10:23;;;;;;;22.23;14.00;;;;;;;;;;4961093;29;20043;-90
2023/09/22 00:13:08;;;;;;;20.85;13.25;;;;;;;;;;4961164;28;20406;-92
2023/09/22 00:15:34;;;;;;;25.02;13.75;;;;;;;;;;4959795;29;20038;-90
2023/09/22 00:18:00;;;;;;;19.58;13.63;;;;;;;;;;4960201;28;20124;-90
2023/09/22 00:20:26;;;;;;;18.35;12.98;;;;;;;;;;4960221;29;20038;-91
2023/09/22 00:22:52;;;;;;;18.73;12.32;;;;;;;;;;4961390;29;20024;-90
2023/09/22 00:25:19;;;;;;;20.27;12.13;;;;;;;;;;4960131;29;20023;-90
2023/09/22 00:27:45;;;;;;;26.63;14.05;;;;;;;;;;4960674;29;20311;-90
2023/09/22 00:30:11;;;;;;;23.30;13.32;;;;;;;;;;4959966;29;20114;-91
2023/09/22 00:32:38;;;;;;;18.17;14.13;;;;;;;;;;4960743;29;20502;-90
2023/09/22 00:35:05;;;;;;;23.88;14.18;;;;;;;;;;4959929;29;20414;-91
2023/09/22 00:37:31;;;;;;;18.58;13.07;;;;;;;;;;4943926;29;20024;-90
2023/09/22 00:39:57;;;;;;;20.90;15.05;;;;;;;;;;4940643;29;20074;-91
2023/09/22 00:42:24;;;;;;;25.65;15.20;;;;;;;;;;4941532;29;20030;-90
2023/09/22 00:44:50;;;;;;;23.73;14.05;;;;;;;;;;4940596;29;20042;-91
2023/09/22 00:47:16;;;;;;;22.92;14.70;;;;;;;;;;4955806;29;20042;-91
2023/09/22 00:49:42;;;;;;;21.02;14.73;;;;;;;;;;4960769;29;20035;-91
2023/09/22 00:52:09;;;;;;;22.65;14.80;;;;;;;;;;4960409;29;20031;-91
2023/09/22 00:54:36;;;;;;;20.40;14.95;;;;;;;;;;4959811;29;20031;-90
2023/09/22 00:57:20;;;;;;;23.50;14.93;;;;;;;;;;4947716;29;20028;-91
2023/09/22 00:59:47;;;;;;;29.35;15.68;;;;;;;;;;4941498;29;20035;-90
2023/09/22 01:02:13;;;;;;;26.95;15.93;;;;;;;;;;4940359;29;20031;-90
2023/09/22 01:04:40;;;;;;;21.27;16.00;;;;;;;;;;4941472;29;20028;-90
2023/09/22 01:07:06;;;;;;;21.48;15.80;;;;;;;;;;4941451;29;20111;-90
2023/09/22 01:09:32;;;;;;;20.77;14.63;;;;;;;;;;4941512;29;20028;-91
2023/09/22 01:11:59;;;;;;;19.67;14.60;;;;;;;;;;4940924;29;20052;-89
2023/09/22 01:14:25;;;;;;;25.75;16.25;;;;;;;;;;4941269;29;20465;-89
2023/09/22 01:16:52;;;;;;;22.83;15.02;;;;;;;;;;4940585;29;20490;-90
2023/09/22 01:19:19;;;;;;;26.83;15.88;;;;;;;;;;4940011;29;20106;-89
2023/09/22 01:21:46;;;;;;;23.98;15.07;;;;;;;;;;4939650;29;20489;-89
2023/09/22 01:24:13;;;;;;;21.98;15.02;;;;;;;;;;4941068;29;20110;-89
2023/09/22 01:26:39;;;;;;;20.45;14.88;;;;;;;;;;4939778;29;20036;-89
2023/09/22 01:29:06;;;;;;;21.27;14.40;;;;;;;;;;4939795;29;20032;-89
2023/09/22 01:31:36;;;;;;;27.85;15.05;;;;;;;;;;4939822;29;20350;-89
2023/09/22 01:34:02;;;;;;;21.17;13.68;;;;;;;;;;4940647;29;20034;-89
2023/09/22 01:36:28;;;;;;;22.58;14.73;;;;;;;;;;4947599;29;20066;-88
2023/09/22 01:38:55;;;;;;;24.38;14.23;;;;;;;;;;4958896;29;20062;-89
2023/09/22 01:41:21;;;;;;;22.85;14.10;;;;;;;;;;4958909;29;20070;-89
2023/09/22 01:43:47;;;;;;;25.88;14.23;;;;;;;;;;4958745;29;20236;-91
2023/09/22 01:46:13;;;;;;;25.38;13.38;;;;;;;;;;4959575;29;20054;-90
2023/09/22 01:48:39;;;;;;;18.48;13.68;;;;;;;;;;4958606;29;20030;-89
2023/09/22 01:51:05;;;;;;;24.92;14.52;;;;;;;;;;4958293;29;20043;-90
2023/09/22 01:53:31;;;;;;;20.25;13.55;;;;;;;;;;4958705;29;20035;-89
2023/09/22 01:59:04;;;;;;;24.63;13.85;;;;;;;;;;4959457;28;20093;-90
2023/09/22 02:01:30;;;;;;;22.85;13.75;;;;;;;;;;4958468;29;20027;-90
2023/09/22 02:03:56;;;;;;;20.45;14.32;;;;;;;;;;4951841;28;20063;-88
2023/09/22 02:06:23;;;;;;;20.85;13.63;;;;;;;;;;4938881;29;20036;-87
2023/09/22 02:08:49;;;;;;;23.90;14.07;;;;;;;;;;4940124;29;20062;-87
2023/09/22 02:11:16;;;;;;;25.90;14.65;;;;;;;;;;4939399;29;20068;-88
2023/09/22 02:13:42;;;;;;;22.65;14.13;;;;;;;;;;4940520;29;20098;-89
2023/09/22 02:16:08;;;;;;;20.50;13.23;;;;;;;;;;4940390;29;20052;-90
2023/09/22 02:18:35;;;;;;;21.70;14.80;;;;;;;;;;4960499;28;20027;-89
2023/09/22 02:21:01;;;;;;;24.02;14.07;;;;;;;;;;4960602;28;20039;-89
2023/09/22 02:23:27;;;;;;;21.05;13.80;;;;;;;;;;4958446;29;20031;-89
2023/09/22 02:25:54;;;;;;;20.73;13.48;;;;;;;;;;4958467;29;20039;-89
2023/09/22 02:31:24;;;;;;;23.48;14.38;;;;;;;;;;4959174;28;20445;-90
2023/09/22 02:33:50;;;;;;;20.58;13.30;;;;;;;;;;4960403;28;20027;-89
2023/09/22 02:36:16;;;;;;;22.15;14.43;;;;;;;;;;4959501;28;20050;-90
2023/09/22 02:38:43;;;;;;;21.33;13.32;;;;;;;;;;4959499;29;20366;-89
2023/09/22 02:41:10;;;;;;;22.05;14.05;;;;;;;;;;4959453;29;20027;-90
2023/09/22 02:43:36;;;;;;;25.40;13.77;;;;;;;;;;4959823;28;20027;-88
2023/09/22 02:46:05;;;;;;;20.02;13.25;;;;;;;;;;4970912;28;20043;-87
2023/09/22 02:48:31;;;;;;;22.13;14.18;;;;;;;;;;4959011;28;20433;-87
2023/09/22 02:50:57;;;;;;;20.55;13.35;;;;;;;;;;4957743;29;20039;-88
2023/09/22 02:53:23;;;;;;;21.35;12.82;;;;;;;;;;4962065;28;20030;-88
2023/09/22 02:55:49;;;;;;;24.05;13.23;;;;;;;;;;4977862;28;20069;-89
2023/09/22 02:58:16;;;;;;;22.27;12.30;;;;;;;;;;4977509;28;20019;-89
2023/09/22 03:00:45;;;;;;;17.58;12.18;;;;;;;;;;4977369;28;20110;-88
2023/09/22 03:03:15;;;;;;;25.58;13.32;;;;;;;;;;4978143;28;20106;-88
2023/09/22 03:05:42;;;;;;;19.45;12.38;;;;;;;;;;4978018;28;20035;-88
2023/09/22 03:08:08;;;;;;;17.45;12.32;;;;;;;;;;4978424;28;20027;-89
2023/09/22 03:10:34;;;;;;;16.90;12.35;;;;;;;;;;4978867;28;20023;-89
2023/09/22 03:13:00;;;;;;;25.42;12.30;;;;;;;;;;4980589;28;20038;-88
2023/09/22 03:15:26;;;;;;;22.13;13.85;;;;;;;;;;4980074;28;20041;-89
2023/09/22 03:17:52;;;;;;;21.17;13.00;;;;;;;;;;4980564;28;20345;-89
2023/09/22 03:20:19;;;;;;;22.85;13.23;;;;;;;;;;4979679;28;20158;-89
2023/09/22 03:22:46;;;;;;;24.42;12.90;;;;;;;;;;4961032;29;20043;-88
2023/09/22 03:25:12;;;;;;;23.80;13.63;;;;;;;;;;4945423;29;20039;-89
2023/09/22 03:27:38;;;;;;;20.45;12.90;;;;;;;;;;4943037;29;20075;-89
2023/09/22 03:30:08;;;;;;;22.13;13.45;;;;;;;;;;4941959;29;20426;-88
2023/09/22 03:32:35;;;;;;;23.15;13.70;;;;;;;;;;4942780;29;20085;-89
2023/09/22 03:35:07;;;;;;;18.58;13.00;;;;;;;;;;4942417;29;20028;-88
2023/09/22 03:37:34;;;;;;;21.63;14.52;;;;;;;;;;4942765;29;20036;-89
2023/09/22 03:40:40;;;;;;;25.25;14.18;;;;;;;;;;4943555;29;20034;-91
2023/09/22 03:42:52;;;;;;;24.30;14.45;;;;;;;;;;4952233;29;20034;-88
2023/09/22 03:45:18;;;;;;;23.13;13.70;;;;;;;;;;4963231;28;20058;-89
2023/09/22 03:47:44;;;;;;;18.67;13.13;;;;;;;;;;4961654;28;20031;-91
2023/09/22 03:50:11;;;;;;;27.52;14.20;;;;;;;;;;4960842;29;20410;-90
2023/09/22 03:52:37;;;;;;;21.05;13.85;;;;;;;;;;4960350;29;20074;-90
2023/09/22 03:55:04;;;;;;;21.75;13.65;;;;;;;;;;4960735;28;20030;-91
2023/09/22 03:57:30;;;;;;;19.70;13.20;;;;;;;;;;4961545;29;20135;-91
2023/09/22 03:59:56;;;;;;;23.25;13.98;;;;;;;;;;4961893;29;20034;-91
2023/09/22 04:02:22;;;;;;;20.02;14.05;;;;;;;;;;4961631;29;20035;-91
2023/09/22 04:04:48;;;;;;;17.58;12.52;;;;;;;;;;4960478;28;20035;-90
2023/09/22 04:07:14;;;;;;;24.58;12.55;;;;;;;;;;4961285;29;20410;-90
2023/09/22 04:09:42;;;;;;;16.38;12.90;;;;;;;;;;4961581;28;20102;-91
2023/09/22 04:12:08;;;;;;;23.75;13.15;;;;;;;;;;4961518;28;20102;-90
2023/09/22 04:14:35;;;;;;;21.95;13.80;;;;;;;;;;4974503;28;20023;-90
2023/09/22 04:17:01;;;;;;;20.35;12.93;;;;;;;;;;4979179;28;20070;-91
2023/09/22 04:19:27;;;;;;;19.90;13.20;;;;;;;;;;4979569;28;20033;-90
2023/09/22 04:21:54;;;;;;;22.83;12.43;;;;;;;;;;4978711;28;20030;-91
2023/09/22 04:24:20;;;;;;;24.80;13.95;;;;;;;;;;4980381;28;20035;-90
2023/09/22 04:29:49;;;;;;;22.63;12.32;;;;;;;;;;4980704;28;20054;-91
2023/09/22 04:32:16;;;;;;;25.35;11.68;;;;;;;;;;4979254;28;20062;-91
2023/09/22 04:34:43;;;;;;;22.17;12.63;;;;;;;;;;4965337;28;20035;-89
2023/09/22 04:37:09;;;;;;;19.92;12.75;;;;;;;;;;4960760;28;20027;-89
2023/09/22 04:39:35;;;;;;;22.45;12.20;;;;;;;;;;4959896;29;20023;-89
2023/09/22 04:42:02;;;;;;;20.00;12.40;;;;;;;;;;4960721;29;20120;-89
2023/09/22 04:44:28;;;;;;;17.13;11.75;;;;;;;;;;4960855;28;20062;-89
2023/09/22 04:46:54;;;;;;;18.20;11.60;;;;;;;;;;4960793;29;20035;-88
2023/09/22 04:49:20;;;;;;;30.95;13.98;;;;;;;;;;4960873;29;20031;-89
2023/09/22 04:51:46;;;;;;;22.73;11.68;;;;;;;;;;4959576;29;20031;-89
2023/09/22 04:54:12;;;;;;;26.08;12.43;;;;;;;;;;4959541;28;20027;-89
2023/09/22 04:56:51;;;;;;;22.63;13.23;;;;;;;;;;4959602;29;20035;-89
2023/09/22 04:59:17;;;;;;;21.98;12.05;;;;;;;;;;4959495;29;20077;-89
2023/09/22 05:01:44;;;;;;;18.67;11.80;;;;;;;;;;4959573;29;20066;-89
2023/09/22 05:04:10;;;;;;;24.95;12.98;;;;;;;;;;4973124;28;20027;-89
2023/09/22 05:06:36;;;;;;;21.08;12.45;;;;;;;;;;4979881;28;20035;-89
2023/09/22 05:09:03;;;;;;;17.67;11.25;;;;;;;;;;4978394;28;20062;-89
2023/09/22 05:11:29;;;;;;;19.95;11.23;;;;;;;;;;4953667;28;20059;-89
2023/09/22 05:13:56;;;;;;;21.92;11.32;;;;;;;;;;4966390;28;20034;-89
2023/09/22 05:16:22;;;;;;;19.40;11.32;;;;;;;;;;4977839;28;20057;-88
2023/09/22 05:18:48;;;;;;;22.20;11.38;;;;;;;;;;4960805;28;20023;-88
2023/09/22 05:21:14;;;;;;;19.42;10.60;;;;;;;;;;4959150;29;20039;-88
2023/09/22 05:23:41;;;;;;;15.43;10.40;;;;;;;;;;4960033;28;20414;-88
2023/09/22 05:26:08;;;;;;;16.95;9.82;;;;;;;;;;4959037;29;20122;-87
2023/09/22 05:28:34;;;;;;;26.88;16.38;;;;;;;;;;4959018;29;20029;-87
2023/09/22 05:31:00;;;;;;;28.30;17.67;;;;;;;;;;4959860;28;20027;-87
2023/09/22 05:33:28;;;;;;;21.08;12.88;;;;;;;;;;4958003;28;20027;-88
2023/09/22 05:35:55;;;;;;;21.90;11.45;;;;;;;;;;4960138;28;20027;-84
2023/09/22 05:38:21;;;;;;;18.30;10.82;;;;;;;;;;4959660;28;20041;-85
2023/09/22 05:40:48;;;;;;;17.67;10.15;;;;;;;;;;4958721;29;20019;-85
2023/09/22 05:43:14;;;;;;;20.35;10.65;;;;;;;;;;4959488;28;20031;-85
2023/09/22 05:45:41;;;;;;;16.45;9.25;;;;;;;;;;4959582;29;20059;-85
2023/09/22 05:48:07;;;;;;;18.65;9.88;;;;;;;;;;4958645;29;20027;-85
2023/09/22 05:50:35;;;;;;;14.98;9.15;;;;;;;;;;4970703;28;20085;-85
2023/09/22 05:53:02;;;;;;;14.38;8.98;;;;;;;;;;4977190;28;20038;-85
2023/09/22 05:55:29;;;;;;;17.13;8.77;;;;;;;;;;4977350;28;20039;-86
2023/09/22 05:57:55;;;;;;;18.80;8.90;;;;;;;;;;4977814;28;20038;-87
2023/09/22 06:00:26;;;;;;;16.85;8.75;;;;;;;;;;4968076;28;20057;-86
2023/09/22 06:02:53;;;;;;;17.80;8.68;;;;;;;;;;4958888;29;20058;-88
2023/09/22 06:05:22;;;;;;;16.48;7.55;;;;;;;;;;4959560;28;20023;-87
2023/09/22 06:07:48;;;;;;;18.67;7.70;;;;;;;;;;4959636;28;20126;-86
2023/09/22 06:10:14;;;;;;;12.35;7.40;;;;;;;;;;4967344;28;20039;-88
2023/09/22 06:12:40;;;;;;;18.13;7.60;;;;;;;;;;4973052;28;20058;-87
2023/09/22 06:15:07;;;;;;;15.88;6.82;;;;;;;;;;4958050;29;20047;-88
2023/09/22 06:17:33;;;;;;;15.48;7.50;;;;;;;;;;4951827;29;20044;-88
2023/09/22 06:20:07;;;;;;;21.52;7.65;;;;;;;;;;4922787;29;20028;-77
2023/09/22 06:22:33;;;;;;;26.20;6.63;;;;;;;;;;4939699;29;20035;-77
2023/09/22 06:24:59;;;;;;;20.00;6.38;;;;;;;;;;4938455;29;20094;-77
2023/09/22 06:27:25;;;;;;;14.40;6.45;;;;;;;;;;4910793;29;20478;-77
2023/09/22 06:29:51;;;;;;;16.45;6.95;;;;;;;;;;4940277;29;20445;-77
2023/09/22 06:32:18;;;;;;;10.80;6.18;;;;;;;;;;4921446;29;20040;-77
2023/09/22 06:34:44;;;;;;;20.38;9.00;;;;;;;;;;4934213;29;20314;-77
2023/09/22 06:37:12;;;;;;;15.73;6.78;;;;;;;;;;4931974;29;20111;-76
2023/09/22 06:39:38;;;;;;;13.07;6.55;;;;;;;;;;4934080;29;20019;-76
2023/09/22 06:45:11;;;;;;;14.80;7.15;;;;;;;;;;4926189;29;20027;-92
2023/09/22 06:47:38;;;;;;;15.95;6.53;;;;;;;;;;4920069;29;20020;-91
2023/09/22 06:50:06;;;;;;;14.43;6.70;;;;;;;;;;4927713;29;20115;-92
2023/09/22 06:52:33;;;;;;;16.58;6.28;;;;;;;;;;4907770;29;20367;-91
2023/09/22 06:55:03;;;;;;;18.92;6.32;;;;;;;;;;4924941;29;20024;-92
2023/09/22 06:57:30;;;;;;;10.32;5.60;;;;;;;;;;4907658;29;20054;-92
2023/09/22 06:59:56;;;;;;;16.02;5.85;;;;;;;;;;4915749;29;20115;-91
2023/09/22 07:02:22;;;;;;;17.77;6.03;;;;;;;;;;4926832;29;20064;-90
2023/09/22 07:04:48;;;;;;;28.42;7.93;;;;;;;;;;4926977;29;20070;-87
2023/09/22 07:07:14;;;;;;;12.77;5.53;;;;;;;;;;4933652;29;20023;-90
2023/09/22 07:09:44;;;;;;;12.05;5.43;;;;;;;;;;4914176;29;20032;-91
2023/09/22 07:15:14;;;;;;;9.52;4.80;;;;;;;;;;4924437;29;20036;-91
2023/09/22 07:17:42;;;;;;;12.73;5.63;;;;;;;;;;4947851;28;20039;-90
2023/09/22 07:20:12;;;;;;;12.77;5.80;;;;;;;;;;4981830;28;20023;-90
2023/09/22 07:22:38;;;;;;;12.93;5.05;;;;;;;;;;4981500;28;20031;-92
2023/09/22 07:25:04;;;;;;;14.00;4.95;;;;;;;;;;4980210;28;20400;-92
2023/09/22 07:27:31;;;;;;;17.27;5.65;;;;;;;;;;4981339;28;20030;-93
2023/09/22 07:29:57;;;;;;;12.95;4.38;;;;;;;;;;4981420;28;20035;-92
2023/09/22 07:32:23;;;;;;;17.52;5.10;;;;;;;;;;4980397;28;20027;-91
2023/09/22 07:34:49;;;;;;;14.05;4.60;;;;;;;;;;4981395;28;20030;-91
2023/09/22 07:37:19;;;;;;;14.85;4.88;;;;;;;;;;4980327;28;20453;-91
2023/09/22 07:39:48;;;;;;;10.55;5.47;;;;;;;;;;4980182;28;20031;-92
2023/09/22 07:42:15;;;;;;;14.77;4.80;;;;;;;;;;4980026;28;20105;-91
2023/09/22 07:44:41;;;;;;;14.68;4.55;;;;;;;;;;4981154;28;20105;-91
2023/09/22 07:47:10;;;;;;;17.33;5.00;;;;;;;;;;4981294;28;20026;-91
2023/09/22 07:49:40;;;;;;;10.82;4.63;;;;;;;;;;4981586;28;20034;-91
2023/09/22 07:52:10;;;;;;;16.33;4.30;;;;;;;;;;4980092;28;20022;-91
2023/09/22 07:54:40;;;;;;;12.98;4.20;;;;;;;;;;4980360;28;20030;-91
2023/09/22 07:57:06;;;;;;;7.68;3.90;;;;;;;;;;4980308;28;20031;-90
2023/09/22 07:59:32;;;;;;;10.15;4.55;;;;;;;;;;4979583;28;20125;-90
2023/09/22 08:02:07;;;;;;;12.63;4.25;;;;;;;;;;4980016;28;20117;-91
2023/09/22 08:04:34;;;;;;;15.00;4.32;;;;;;;;;;4979820;28;20329;-92
2023/09/22 08:07:00;;;;;;;14.05;4.50;;;;;;;;;;4979580;28;20114;-89
2023/09/22 08:09:27;;;;;;;11.20;4.13;;;;;;;;;;4979836;28;20023;-91
2023/09/22 08:11:53;;;;;;;14.93;4.53;;;;;;;;;;4979639;28;20062;-91
2023/09/22 08:14:21;;;;;;;17.60;4.82;;;;;;;;;;4979392;28;20050;-90
2023/09/22 08:16:48;;;;;;;13.02;4.75;;;;;;;;;;4980414;28;20051;-91
2023/09/22 08:19:15;;;;;;;16.23;4.55;;;;;;;;;;4979750;28;20023;-91
2023/09/22 08:21:41;;;;;;;13.73;4.20;;;;;;;;;;4980813;28;20027;-91
2023/09/22 08:24:07;;;;;;;10.20;4.55;;;;;;;;;;4979707;28;20037;-90
2023/09/22 08:26:34;;;;;;;13.68;5.00;;;;;;;;;;4980225;28;20053;-90
2023/09/22 08:29:00;;;;;;;17.60;4.88;;;;;;;;;;4979532;28;20369;-90
2023/09/22 08:31:26;;;;;;;15.82;5.13;;;;;;;;;;4980247;28;20476;-90
2023/09/22 08:33:53;;;;;;;13.75;4.68;;;;;;;;;;4979028;28;20066;-91
2023/09/22 08:36:19;;;;;;;12.73;4.30;;;;;;;;;;4980064;28;20417;-90
2023/09/22 08:38:51;;;;;;;14.30;4.40;;;;;;;;;;4979953;28;20362;-91
2023/09/22 08:41:17;;;;;;;16.30;4.75;;;;;;;;;;4979749;28;20069;-90
2023/09/22 08:43:45;;;;;;;15.25;4.45;;;;;;;;;;4978649;28;20126;-90
2023/09/22 08:46:11;;;;;;;16.42;4.40;;;;;;;;;;4980435;28;20031;-90
2023/09/22 08:48:38;;;;;;;14.70;4.78;;;;;;;;;;4979905;28;20062;-90
2023/09/22 08:51:05;;;;;;;16.58;4.18;;;;;;;;;;4979717;28;20026;-90
2023/09/22 08:53:32;;;;;;;12.18;4.18;;;;;;;;;;4978691;28;20070;-90
2023/09/22 08:55:58;;;;;;;26.35;4.32;;;;;;;;;;4979538;28;20027;-90
2023/09/22 08:58:24;;;;;;;17.73;5.00;;;;;;;;;;4964070;28;20031;-91
2023/09/22 09:00:51;;;;;;;17.75;4.10;;;;;;;;;;4959481;29;20027;-90
2023/09/22 09:03:20;;;;;;;14.35;4.35;;;;;;;;;;4959608;29;20059;-86
2023/09/22 09:05:46;;;;;;;12.13;3.90;;;;;;;;;;4960210;28;20038;-86
2023/09/22 09:08:14;;;;;;;21.13;4.90;;;;;;;;;;4959541;28;20023;-85
2023/09/22 09:10:40;;;;;;;14.75;4.45;;;;;;;;;;4959051;29;20019;-85
2023/09/22 09:13:07;;;;;;;17.83;5.05;;;;;;;;;;4959060;29;20038;-86
2023/09/22 09:15:43;;;;;;;16.92;4.75;;;;;;;;;;4959639;29;20362;-85
2023/09/22 09:18:11;;;;;;;13.65;4.50;;;;;;;;;;4959733;28;20063;-86
2023/09/22 09:20:40;;;;;;;15.38;5.30;;;;;;;;;;4974460;28;20027;-85
2023/09/22 09:23:16;;;;;;;12.70;5.00;;;;;;;;;;4960053;28;20326;-86
2023/09/22 09:25:54;;;;;;;16.48;4.57;;;;;;;;;;4958434;29;20042;-86
2023/09/22 09:28:21;;;;;;;14.32;4.53;;;;;;;;;;4968846;28;20481;-85
2023/09/22 09:30:54;;;;;;;21.05;4.63;;;;;;;;;;4958345;29;20036;-85
2023/09/22 09:33:21;;;;;;;23.63;5.15;;;;;;;;;;4959610;28;20023;-84
2023/09/22 09:35:47;;;;;;;15.80;4.80;;;;;;;;;;4959845;28;20038;-88
2023/09/22 09:38:14;;;;;;;16.73;4.30;;;;;;;;;;4960928;28;20102;-87
2023/09/22 09:40:40;;;;;;;19.10;4.15;;;;;;;;;;4959737;29;20071;-88
2023/09/22 09:43:39;;;;;;;17.77;4.43;;;;;;;;;;4962935;28;20042;-83
2023/09/22 09:46:06;;;;;;;16.88;3.72;;;;;;;;;;4974940;28;20117;-89
2023/09/22 09:48:37;;;;;;;19.80;4.22;;;;;;;;;;4974484;28;20031;-90
2023/09/22 09:51:04;;;;;;;17.77;4.28;;;;;;;;;;4979191;28;20401;-90
2023/09/22 09:53:36;;;;;;;16.73;4.22;;;;;;;;;;4978668;28;20110;-90
2023/09/22 09:56:05;;;;;;;17.88;4.13;;;;;;;;;;4959553;28;20425;-90
2023/09/22 09:58:32;;;;;;;15.68;3.47;;;;;;;;;;4963499;28;20026;-90
2023/09/22 10:00:58;;;;;;;17.50;5.18;;;;;;;;;;4976190;28;20069;-90
2023/09/22 10:03:26;;;;;;;28.40;5.18;;;;;;;;;;4975845;28;20424;-89
2023/09/22 10:05:52;;;;;;;24.70;4.55;;;;;;;;;;4974448;28;20019;-89
2023/09/22 10:08:22;;;;;;;17.83;3.85;;;;;;;;;;4958698;29;20033;-90
2023/09/22 10:10:51;;;;;;;18.90;3.80;;;;;;;;;;4967073;28;20027;-90
2023/09/22 10:16:34;;;;;;;19.52;4.28;;;;;;;;;;4973229;28;20054;-91
2023/09/22 10:19:02;;;;;;;16.35;4.03;;;;;;;;;;4974822;28;20042;-91
2023/09/22 10:21:31;;;;;;;15.05;4.18;;;;;;;;;;4982804;28;20093;-90
2023/09/22 10:24:16;;;;;;;25.98;4.75;;;;;;;;;;4970183;28;20346;-90
2023/09/22 10:26:54;;;;;;;14.90;4.45;;;;;;;;;;4962991;29;20059;-89
2023/09/22 10:29:35;;;;;;;16.52;4.35;;;;;;;;;;4962038;29;20147;-90
2023/09/22 10:32:25;;;;;;;24.40;4.05;;;;;;;;;;4963301;28;20065;-89
2023/09/22 10:34:52;;;;;;;22.88;4.70;;;;;;;;;;4944018;29;20039;-89
2023/09/22 10:37:22;;;;;;;22.77;4.82;;;;;;;;;;4976455;28;20027;-90
2023/09/22 10:40:11;;;;;;;18.27;5.03;;;;;;;;;;4974495;28;20071;-91
2023/09/22 10:42:40;;;;;;;16.17;3.78;;;;;;;;;;4962189;28;20034;-90
2023/09/22 10:45:07;;;;;;;16.40;4.82;;;;;;;;;;4970665;28;20118;-88
2023/09/22 10:47:40;;;;;;;19.17;4.50;;;;;;;;;;4965107;28;20086;-81
2023/09/22 10:50:13;;;;;;;18.33;4.47;;;;;;;;;;4966663;28;20122;-83
2023/09/22 10:52:39;;;;;;;13.77;4.18;;;;;;;;;;4957371;29;20037;-83
2023/09/22 10:55:06;;;;;;;18.35;4.65;;;;;;;;;;4962397;28;20102;-83
2023/09/22 10:57:33;;;;;;;16.98;4.30;;;;;;;;;;4962184;28;20066;-83
2023/09/22 11:00:01;;;;;;;20.17;4.60;;;;;;;;;;4979639;28;20294;-83
2023/09/22 11:02:27;;;;;;;20.25;4.80;;;;;;;;;;4980641;28;20030;-83
2023/09/22 11:04:54;;;;;;;21.50;4.50;;;;;;;;;;4967155;28;20027;-83
2023/09/22 11:07:33;;;;;;;22.65;4.90;;;;;;;;;;4962017;28;20031;-83
2023/09/22 11:10:00;;;;;;;20.85;5.05;;;;;;;;;;4973156;28;20303;-83
2023/09/22 11:12:29;;;;;;;18.65;5.18;;;;;;;;;;4965129;28;20030;-83
2023/09/22 11:14:56;;;;;;;17.58;4.40;;;;;;;;;;4961971;28;20031;-83
2023/09/22 11:17:22;;;;;;;14.18;4.35;;;;;;;;;;4961646;28;20059;-83
2023/09/22 11:19:51;;;;;;;20.67;4.88;;;;;;;;;;4961821;29;20043;-83
2023/09/22 11:22:17;;;;;;;18.33;4.68;;;;;;;;;;4961247;29;20031;-83
2023/09/22 11:24:45;;;;;;;21.65;4.75;;;;;;;;;;4960472;29;20046;-83
2023/09/22 11:27:11;;;;;;;21.17;5.68;;;;;;;;;;4961733;28;20042;-83
2023/09/22 11:29:39;;;;;;;22.70;5.03;;;;;;;;;;4961282;28;20122;-83
2023/09/22 11:32:08;;;;;;;16.77;4.45;;;;;;;;;;4976938;28;20035;-83
2023/09/22 11:34:49;;;;;;;17.10;3.92;;;;;;;;;;4975527;28;20074;-83
2023/09/22 11:37:15;;;;;;;17.55;5.13;;;;;;;;;;4961807;28;20035;-83
2023/09/22 11:39:43;;;;;;;19.95;4.07;;;;;;;;;;4961337;29;20023;-82
2023/09/22 11:42:12;;;;;;;18.38;3.97;;;;;;;;;;4961547;28;20060;-83
2023/09/22 11:44:40;;;;;;;17.88;4.18;;;;;;;;;;4967546;28;20036;-83
2023/09/22 11:47:08;;;;;;;15.45;4.00;;;;;;;;;;4970123;28;20160;-82
2023/09/22 11:49:36;;;;;;;18.75;4.43;;;;;;;;;;4960185;29;20065;-83
2023/09/22 11:52:03;;;;;;;17.80;4.22;;;;;;;;;;4961111;28;20039;-83
2023/09/22 11:54:31;;;;;;;13.98;4.07;;;;;;;;;;4964210;28;20381;-83
2023/09/22 11:56:58;;;;;;;23.05;5.07;;;;;;;;;;4979141;28;20054;-83
2023/09/22 11:59:31;;;;;;;20.13;4.30;;;;;;;;;;4976138;28;20310;-83
2023/09/22 12:02:04;;;;;;;17.63;4.70;;;;;;;;;;4975086;28;20463;-83
2023/09/22 12:04:32;;;;;;;11.50;3.65;;;;;;;;;;4974243;28;20373;-83
2023/09/22 12:06:58;;;;;;;20.10;4.60;;;;;;;;;;4962233;28;20058;-83
2023/09/22 12:09:24;;;;;;;16.60;4.63;;;;;;;;;;4960727;28;20035;-83
2023/09/22 12:11:50;;;;;;;18.77;4.20;;;;;;;;;;4979158;28;20031;-83
2023/09/22 12:14:16;;;;;;;23.42;4.43;;;;;;;;;;4977214;28;20070;-83
2023/09/22 12:16:43;;;;;;;17.17;4.88;;;;;;;;;;4979641;28;20461;-84
2023/09/22 12:19:09;;;;;;;18.45;4.80;;;;;;;;;;4979222;28;20039;-83
2023/09/22 12:21:35;;;;;;;16.17;4.47;;;;;;;;;;4975254;28;20035;-83
2023/09/22 12:24:01;;;;;;;16.42;5.20;;;;;;;;;;4964095;28;20039;-84
2023/09/22 12:26:30;;;;;;;16.70;5.00;;;;;;;;;;4961035;28;20069;-83
2023/09/22 12:28:57;;;;;;;22.45;8.60;;;;;;;;;;4962288;28;20078;-83
2023/09/22 12:31:23;;;;;;;13.82;5.07;;;;;;;;;;4957542;28;20118;-80
2023/09/22 12:33:49;;;;;;;18.58;6.40;;;;;;;;;;4960086;28;20035;-81
2023/09/22 12:36:16;;;;;;;23.95;14.70;;;;;;;;;;4960473;28;20031;-86
2023/09/22 12:38:42;;;;;;;37.90;24.65;;;;;;;;;;4949222;28;20050;-79
2023/09/22 12:41:10;;;;;;;39.22;27.85;;;;;;;;;;4941102;29;20118;-79
2023/09/22 12:43:36;;;;;;;24.38;12.25;;;;;;;;;;4940663;28;20035;-79
2023/09/22 12:46:02;;;;;;;29.08;19.65;;;;;;;;;;4953698;28;20510;-79
2023/09/22 12:48:28;;;;;;;30.70;17.25;;;;;;;;;;4960161;29;20062;-79
2023/09/22 12:50:57;;;;;;;29.23;9.98;;;;;;;;;;4960111;29;20026;-79
2023/09/22 12:53:25;;;;;;;32.28;18.27;;;;;;;;;;4971096;28;20106;-79
2023/09/22 12:55:57;;;;;;;13.40;4.45;;;;;;;;;;4978581;28;20467;-79
2023/09/22 12:58:26;;;;;;;12.23;3.50;;;;;;;;;;4965465;28;20023;-79
2023/09/22 13:01:05;;;;;;;14.88;3.75;;;;;;;;;;4958561;29;20106;-79
2023/09/22 13:03:34;;;;;;;13.40;5.50;;;;;;;;;;4958045;28;20027;-79
2023/09/22 13:06:02;;;;;;;11.13;3.83;;;;;;;;;;4959399;29;20405;-79
2023/09/22 13:08:28;;;;;;;17.10;10.07;;;;;;;;;;4957029;28;20407;-79
2023/09/22 13:10:56;;;;;;;15.60;4.25;;;;;;;;;;4944252;29;20067;-79
2023/09/22 13:13:22;;;;;;;15.50;4.95;;;;;;;;;;4950063;28;20119;-78
2023/09/22 13:15:49;;;;;;;18.95;4.78;;;;;;;;;;4962841;28;20060;-85
2023/09/22 13:18:16;;;;;;;14.05;3.85;;;;;;;;;;4941166;29;20090;-82
2023/09/22 13:20:42;;;;;;;15.45;5.13;;;;;;;;;;4953380;29;20024;-81
2023/09/22 13:23:09;;;;;;;16.15;3.97;;;;;;;;;;4953773;28;20023;-81
2023/09/22 13:25:42;;;;;;;21.38;6.38;;;;;;;;;;4967832;28;20038;-81
2023/09/22 13:28:09;;;;;;;17.10;5.25;;;;;;;;;;4978716;28;20039;-81
2023/09/22 13:30:43;;;;;;;16.15;4.63;;;;;;;;;;4977311;28;20125;-81
2023/09/22 13:33:10;;;;;;;13.10;3.55;;;;;;;;;;4978625;28;20106;-82
2023/09/22 13:35:36;;;;;;;14.95;3.50;;;;;;;;;;4978871;28;20019;-81
2023/09/22 13:38:03;;;;;;;12.80;3.30;;;;;;;;;;4978604;28;20054;-82
2023/09/22 13:40:32;;;;;;;19.35;4.68;;;;;;;;;;4977302;28;20426;-81
2023/09/22 13:43:00;;;;;;;13.00;3.78;;;;;;;;;;4965710;28;20082;-82
2023/09/22 13:45:26;;;;;;;16.45;4.82;;;;;;;;;;4958791;28;20422;-81
2023/09/22 13:47:53;;;;;;;15.98;3.78;;;;;;;;;;4958726;28;20043;-82
2023/09/22 13:50:19;;;;;;;13.98;3.60;;;;;;;;;;4959199;28;20061;-82
2023/09/22 13:52:45;;;;;;;12.40;3.40;;;;;;;;;;4959056;28;20031;-82
2023/09/22 13:55:12;;;;;;;13.57;3.22;;;;;;;;;;4957053;28;20036;-82
2023/09/22 13:57:38;;;;;;;14.23;3.95;;;;;;;;;;4959159;28;20015;-82
2023/09/22 14:00:10;;;;;;;16.23;3.97;;;;;;;;;;4957701;29;20043;-85
2023/09/22 14:02:37;;;;;;;14.98;3.88;;;;;;;;;;4959205;28;20039;-82
2023/09/22 14:05:03;;;;;;;12.80;3.55;;;;;;;;;;4958952;28;20099;-82
2023/09/22 14:07:30;;;;;;;11.80;2.92;;;;;;;;;;4959101;28;20050;-82
2023/09/22 14:09:56;;;;;;;11.38;3.10;;;;;;;;;;4958982;29;20030;-82
2023/09/22 14:12:22;;;;;;;12.50;3.33;;;;;;;;;;4957296;29;20116;-82
2023/09/22 14:14:48;;;;;;;13.07;3.38;;;;;;;;;;4958840;29;20034;-82
2023/09/22 14:17:15;;;;;;;10.55;3.70;;;;;;;;;;4958697;29;20386;-82
2023/09/22 14:19:41;;;;;;;10.57;3.58;;;;;;;;;;4959034;29;20303;-82
2023/09/22 14:22:07;;;;;;;13.48;4.13;;;;;;;;;;4941157;29;20031;-83
2023/09/22 14:24:33;;;;;;;11.98;3.83;;;;;;;;;;4958747;29;20033;-82
2023/09/22 14:26:59;;;;;;;16.15;3.92;;;;;;;;;;4941138;29;20039;-82
2023/09/22 14:29:25;;;;;;;15.13;3.70;;;;;;;;;;4941103;29;20040;-82
2023/09/22 14:31:51;;;;;;;11.52;3.50;;;;;;;;;;4940726;29;20047;-81
2023/09/22 14:34:17;;;;;;;14.43;3.00;;;;;;;;;;4958643;29;20023;-82
2023/09/22 14:36:43;;;;;;;17.80;3.42;;;;;;;;;;4958844;29;20217;-82
2023/09/22 14:39:09;;;;;;;14.23;3.45;;;;;;;;;;4941190;29;20038;-82
2023/09/22 14:41:35;;;;;;;15.25;3.42;;;;;;;;;;4941757;29;20031;-82
2023/09/22 14:44:02;;;;;;;12.88;3.45;;;;;;;;;;4958640;29;20050;-82